Latest Weather Observations for Montague Island

IDN60801

Issued at 3:35 pm EST Friday 1 August 2014 (issued every 30 minutes, with the page automatically refreshed every 10 minutes)

About weather observations | Map of weather stations | Latest weather observations for NSW | Other Formats
Station Details ID: 069017 Name: MONTAGUE ISLAND LIGHTHOUSE Lat: -36.25 Lon: 150.23 Height: 52.0 m
Data from the previous 72 hours. | See also: Recent months at Montague Island
Date/Time
EST
Temp
°C
App
Temp
°C
Dew
Point
Rel
Hum
%
Delta-T
°C
Wind Press
QNH
hPa
Press
MSL
hPa
Rain
since 9 am
mm
Dir
 
Spd
km/h
Gust
km/h
Spd
kts
Gust
kts
01/03:30pm 15.5 6.7 -4.4 25 7.7 W 33 50 18 27 1004.4 - 0.0
01/03:00pm 15.8 9.5 -4.2 25 7.8 W 20 43 11 23 1004.1 1004.1 0.0
01/02:30pm 16.3 9.8 -2.7 27 7.7 W 22 33 12 18 1003.8 - 0.0
01/02:00pm 15.9 6.3 -4.6 24 8.0 W 37 56 20 30 1003.5 1003.5 0.0
01/01:46pm 15.9 6.7 -4.1 25 7.8 W 35 57 19 31 1003.1 - 0.0
01/01:35pm 15.9 5.0 -4.1 25 7.8 WNW 44 56 24 30 1003.1 - 0.0
01/01:30pm 16.3 9.5 -4.8 23 8.2 W 22 37 12 20 1003.4 - 0.0
01/01:00pm 15.7 6.9 -4.2 25 7.8 W 33 46 18 25 1003.1 1003.1 0.0
01/12:33pm 15.2 4.1 -5.8 23 7.8 W 44 63 24 34 1003.0 - 0.0
01/12:30pm 15.4 4.7 -3.0 28 7.3 W 44 61 24 33 1003.2 - 0.0
01/12:00pm 15.1 5.1 -4.8 25 7.6 W 39 67 21 36 1003.1 1003.1 0.0
01/11:58am 15.3 6.3 -5.7 23 7.9 W 33 67 18 36 1003.1 - 0.0
01/11:56am 15.4 7.4 -5.6 23 7.9 W 28 46 15 25 1003.4 - 0.0
01/11:30am 15.2 6.6 -2.7 29 7.2 WNW 33 46 18 25 1003.7 - 0.0
01/11:00am 15.1 9.2 -2.3 30 7.0 WNW 19 33 10 18 1003.6 1003.6 0.0
01/10:30am 14.2 8.0 -3.1 30 6.8 WNW 20 37 11 20 1004.0 - 0.0
01/10:00am 13.9 6.6 -2.5 32 6.5 W 26 43 14 23 1004.3 1004.3 0.0
01/09:44am 13.3 5.4 -4.8 28 6.8 W 28 57 15 31 1004.3 - 0.0
01/09:30am 13.4 6.1 -2.9 32 6.4 WNW 26 37 14 20 1004.5 - 0.0
01/09:04am 13.3 5.7 -2.2 34 6.1 WNW 28 52 15 28 1004.3 - 0.0
01/09:00am 13.2 6.3 -2.3 34 6.2 WNW 24 33 13 18 1004.5 1004.5 0.0
01/08:39am 12.9 1.8 -2.6 34 6.1 W 46 67 25 36 1003.9 - 0.0
01/08:30am 12.9 1.8 -3.0 33 6.2 W 46 57 25 31 1003.9 - 0.0
01/08:00am 12.9 3.8 -0.7 39 5.6 WNW 37 48 20 26 1003.6 1003.6 0.0
01/07:30am 12.8 2.3 -0.8 39 5.5 WNW 44 56 24 30 1003.3 - 0.0
01/07:10am 12.9 3.9 0.0 41 5.4 WNW 37 57 20 31 1003.1 - 0.0
01/07:00am 12.7 4.6 1.1 45 4.9 W 33 41 18 22 1002.9 1002.9 0.0
01/06:30am 12.5 4.5 3.7 55 3.9 W 35 46 19 25 1002.4 - 0.0
01/06:22am 11.1 4.4 5.8 70 2.5 W 30 41 16 22 1002.5 - 0.0
01/06:00am 10.9 8.2 7.4 79 1.7 SSE 11 19 6 10 1002.9 1002.9 0.0
01/05:30am 11.2 5.8 7.9 80 1.6 SE 26 30 14 16 1002.8 - 0.0
01/05:00am 11.3 4.7 7.8 79 1.7 S 32 39 17 21 1002.9 1002.9 0.0
01/04:30am 11.6 5.0 8.5 81 1.5 S 33 41 18 22 1001.9 - 0.0
01/04:00am 11.6 4.9 8.3 80 1.6 S 33 43 18 23 1001.5 1001.5 0.0
01/03:30am 11.9 4.2 8.6 80 1.6 S 39 48 21 26 1001.3 - 0.0
01/03:00am 12.8 4.6 9.8 82 1.5 S 43 54 23 29 1001.2 1001.2 0.0
01/02:30am 13.3 4.3 10.1 81 1.7 SSE 48 57 26 31 1000.0 - 0.0
01/02:00am 14.6 7.1 10.8 78 2.0 S 41 63 22 34 999.6 999.6 0.0
01/01:54am 15.4 8.7 9.7 69 3.0 S 35 63 19 34 999.2 - 0.0
01/01:30am 18.6 12.3 5.8 43 6.3 NNW 28 37 15 20 999.0 - 0.0
01/01:00am 18.5 11.3 5.7 43 6.3 N 33 44 18 24 998.8 998.8 0.0
01/12:30am 18.8 9.7 3.8 37 7.1 N 41 50 22 27 998.6 - 0.0
01/12:00am 18.9 10.3 4.7 39 6.9 N 39 50 21 27 998.6 998.6 0.0
 
Date/Time
EST
Temp
°C
App
Temp
°C
Dew
Point
Rel
Hum
%
Delta-T
°C
Wind Press
QNH
hPa
Press
MSL
hPa
Rain
since 9 am
mm
Dir
 
Spd
km/h
Gust
km/h
Spd
kts
Gust
kts
31/11:30pm 18.5 11.7 7.0 47 5.8 N 32 39 17 21 999.0 - 0.0
31/11:00pm 19.1 11.2 4.5 38 7.1 N 35 43 19 23 999.4 999.4 0.0
31/10:30pm 19.0 12.8 4.4 38 7.0 N 26 35 14 19 999.7 - 0.0
31/10:00pm 19.1 13.0 4.8 39 7.0 NNW 26 33 14 18 999.9 999.9 0.0
31/09:30pm 18.9 12.6 5.7 42 6.5 N 28 35 15 19 1000.0 - 0.0
31/09:00pm 19.4 12.2 3.2 34 7.7 N 30 39 16 21 999.9 999.9 0.0
31/08:30pm 19.3 11.8 4.6 38 7.1 N 33 48 18 26 999.7 - 0.0
31/08:20pm 19.3 11.3 3.9 36 7.3 N 35 63 19 34 999.5 - 0.0
31/08:00pm 19.1 11.5 5.6 41 6.7 N 35 43 19 23 999.7 999.7 0.0
31/07:30pm 19.3 10.5 5.4 40 6.8 N 41 57 22 31 999.2 - 0.0
31/07:00pm 19.4 9.3 5.5 40 6.9 N 48 57 26 31 998.8 998.8 0.0
31/06:30pm 19.4 9.3 5.5 40 6.8 N 48 59 26 32 998.6 - 0.0
31/06:00pm 19.5 8.2 5.6 40 6.9 N 54 67 29 36 998.1 998.1 0.0
31/05:30pm 19.6 7.2 4.9 38 7.2 N 59 74 32 40 997.8 - 0.0
31/05:00pm 19.8 7.1 5.1 38 7.2 N 61 74 33 40 997.6 997.6 0.0
31/04:30pm 20.2 8.9 5.4 38 7.3 N 54 70 29 38 997.6 - 0.0
31/04:09pm 20.3 9.0 5.5 38 7.3 N 54 74 29 40 997.7 - 0.0
31/04:00pm 20.3 9.6 6.3 40 7.1 N 52 67 28 36 997.9 997.9 0.0
31/03:30pm 20.6 10.4 6.9 41 7.0 N 50 63 27 34 998.0 - 0.0
31/03:00pm 21.3 11.0 6.4 38 7.6 N 50 65 27 35 998.3 998.3 0.0
31/02:41pm 21.4 11.1 4.9 34 8.1 N 48 70 26 38 998.5 - 0.0
31/02:30pm 21.3 12.9 7.2 40 7.3 N 41 54 22 29 998.9 - 0.0
31/02:00pm 21.4 11.9 6.9 39 7.5 N 46 59 25 32 999.3 999.3 0.0
31/01:49pm 21.7 12.5 6.4 37 7.8 N 44 63 24 34 999.5 - 0.0
31/01:30pm 21.4 12.5 6.9 39 7.4 N 43 59 23 32 999.7 - 0.0
31/01:00pm 21.2 11.9 7.4 41 7.2 N 46 57 25 31 1000.3 1000.3 0.0
31/12:30pm 20.7 11.9 7.3 42 6.9 N 43 57 23 31 1001.2 - 0.0
31/12:00pm 20.7 11.7 6.6 40 7.2 N 43 56 23 30 1002.1 1002.1 0.0
31/11:30am 20.3 11.8 7.0 42 6.8 N 41 50 22 27 1003.3 - 0.0
31/11:00am 18.9 10.5 8.8 52 5.3 NNE 43 57 23 31 1004.5 1004.5 0.0
31/10:30am 18.8 9.4 7.3 47 5.8 NNE 46 56 25 30 1005.0 - 0.0
31/10:00am 18.3 10.8 8.0 51 5.3 N 37 52 20 28 1005.7 1005.7 0.0
31/09:30am 18.1 9.7 8.9 55 4.8 N 43 52 23 28 1006.0 - 0.0
31/09:00am 17.6 9.5 8.7 56 4.6 N 41 50 22 27 1006.5 1006.5 0.0
31/08:30am 17.5 9.4 8.6 56 4.6 N 41 50 22 27 1006.8 - 0.0
31/08:00am 17.1 9.5 9.0 59 4.2 N 39 48 21 26 1007.0 1007.0 0.0
31/07:30am 16.9 9.6 8.8 59 4.2 N 37 46 20 25 1007.3 - 0.0
31/07:00am 16.4 12.0 10.3 67 3.2 N 24 39 13 21 1007.5 1007.5 0.0
31/06:30am 16.2 10.6 10.3 68 3.1 N 30 41 16 22 1007.7 - 0.0
31/06:00am 16.0 11.5 10.1 68 3.1 NNW 24 33 13 18 1007.7 1007.7 0.0
31/05:30am 15.0 12.1 9.6 70 2.8 NNW 15 22 8 12 1008.0 - 0.0
31/05:00am 15.6 11.7 9.5 67 3.2 NNW 20 28 11 15 1008.1 1008.1 0.0
31/04:30am 15.8 11.7 8.8 63 3.6 NNW 20 28 11 15 1008.3 - 0.0
31/04:00am 16.1 11.9 11.1 72 2.7 N 24 37 13 20 1008.3 1008.3 0.0
31/03:30am 16.4 11.5 11.3 72 2.8 N 28 35 15 19 1008.6 - 0.0
31/03:00am 16.5 11.0 10.6 68 3.2 N 30 37 16 20 1008.9 1008.9 0.0
31/02:30am 16.6 12.0 10.9 69 3.1 N 26 33 14 18 1009.1 - 0.0
31/02:00am 16.8 12.2 9.5 62 3.8 NNW 24 35 13 19 1009.3 1009.3 0.0
31/01:30am 16.5 11.5 9.7 64 3.6 N 26 33 14 18 1009.8 - 0.0
31/01:00am 16.7 12.0 10.8 68 3.2 NNW 26 35 14 19 1009.9 1009.9 0.0
31/12:30am 16.7 12.1 11.2 70 3.0 N 26 33 14 18 1010.0 - 0.0
31/12:00am 17.3 11.5 9.5 60 4.1 N 30 39 16 21 1010.2 1010.2 0.0
 
Date/Time
EST
Temp
°C
App
Temp
°C
Dew
Point
Rel
Hum
%
Delta-T
°C
Wind Press
QNH
hPa
Press
MSL
hPa
Rain
since 9 am
mm
Dir
 
Spd
km/h
Gust
km/h
Spd
kts
Gust
kts
30/11:30pm 16.8 11.5 11.3 70 3.0 N 30 39 16 21 1010.6 - 0.0
30/11:00pm 17.2 10.7 10.3 64 3.7 N 35 41 19 22 1010.8 1010.8 0.0
30/10:30pm 16.8 10.9 10.6 67 3.3 N 32 37 17 20 1011.1 - 0.0
30/10:00pm 16.9 11.3 10.3 65 3.5 N 30 37 16 20 1011.3 1011.3 0.0
30/09:30pm 16.9 12.5 11.6 71 2.9 NNW 26 35 14 19 1011.5 - 0.0
30/09:00pm 16.4 12.9 10.9 70 2.9 N 20 24 11 13 1011.9 1012.0 0.0
30/08:30pm 17.6 12.8 9.0 57 4.5 NNW 24 32 13 17 1011.9 - 0.0
30/08:00pm 17.2 12.7 10.1 63 3.8 NNW 24 30 13 16 1012.0 1012.1 0.0
30/07:30pm 17.7 14.2 8.8 56 4.6 NNW 17 24 9 13 1012.2 - 0.0
30/07:00pm 18.1 15.3 8.4 53 5.0 NW 13 17 7 9 1012.2 1012.3 0.0
30/06:30pm 18.5 15.6 6.4 45 6.0 WNW 11 24 6 13 1012.1 - 0.0
30/06:00pm 18.7 11.7 6.9 46 5.9 W 33 41 18 22 1011.7 1011.8 0.0
30/05:35pm 19.5 10.8 5.9 41 6.7 W 41 61 22 33 1011.1 - 0.0
30/05:30pm 19.4 11.6 6.8 44 6.4 W 37 54 20 29 1011.2 - 0.0
30/05:00pm 19.3 11.7 7.4 46 6.1 W 37 46 20 25 1010.9 1010.9 0.0
30/04:30pm 20.3 9.5 5.9 39 7.2 W 52 70 28 38 1010.3 - 0.0
30/04:28pm 20.4 8.5 5.2 37 7.5 W 57 70 31 38 1010.2 - 0.0
30/04:19pm 20.3 12.9 6.6 41 6.9 W 35 56 19 30 1010.3 - 0.0
30/04:00pm 20.4 12.9 6.4 40 7.1 W 35 48 19 26 1010.2 1010.2 0.0
30/03:30pm 20.9 12.7 6.4 39 7.3 W 39 54 21 29 1010.1 - 0.0
30/03:00pm 20.9 12.0 5.3 36 7.7 W 41 52 22 28 1010.0 1010.0 0.0
30/02:43pm 21.3 14.5 6.8 39 7.4 W 32 54 17 29 1010.1 - 0.0
30/02:30pm 21.8 12.8 4.8 33 8.4 W 41 56 22 30 1010.2 - 0.0
30/02:23pm 22.1 15.0 6.3 36 8.0 W 33 52 18 28 1010.2 - 0.0
30/02:00pm 22.0 14.7 7.0 38 7.7 W 35 43 19 23 1010.2 1010.2 0.0
30/01:30pm 21.7 17.3 8.9 44 6.8 SW 22 32 12 17 1010.5 - 0.0
30/01:00pm 19.4 16.5 10.9 58 4.6 NNE 17 32 9 17 1010.4 1010.4 0.0
30/12:30pm 19.5 14.9 11.0 58 4.6 NNE 26 35 14 19 1010.8 - 0.0
30/12:00pm 19.2 14.0 11.7 62 4.1 NNE 30 35 16 19 1011.1 1011.1 0.0
30/11:30am 20.0 15.0 11.0 56 4.9 N 28 37 15 20 1011.7 - 0.0
30/11:00am 19.3 15.4 10.8 58 4.6 N 22 32 12 17 1012.2 1012.3 0.0
30/10:30am 18.6 14.1 10.2 58 4.5 N 24 32 13 17 1012.7 - 0.0
30/10:00am 18.0 14.9 10.4 61 4.1 N 17 24 9 13 1013.3 1013.3 0.0
30/09:30am 17.0 12.2 8.9 59 4.2 N 24 30 13 16 1013.4 - 0.0
30/09:00am 16.7 11.9 8.9 60 4.0 N 24 30 13 16 1013.6 1013.6 0.0
30/08:30am 16.2 11.1 9.2 63 3.6 NNW 26 32 14 17 1013.3 - 0.0
30/08:00am 16.2 10.3 9.2 63 3.6 NNW 30 37 16 20 1012.8 1012.9 0.0
30/07:30am 15.9 10.5 9.6 66 3.3 NNW 28 33 15 18 1012.5 - 0.0
30/07:00am 15.7 10.8 8.4 62 3.7 NW 24 30 13 16 1012.2 1012.3 0.0
30/06:30am 15.9 9.8 8.4 61 3.8 NW 30 39 16 21 1011.8 - 0.0
30/06:00am 16.4 9.9 9.1 62 3.8 NW 33 41 18 22 1011.4 1011.4 0.0
30/05:30am 16.4 9.2 9.1 62 3.8 NNW 37 46 20 25 1011.2 - 0.0
30/05:00am 16.9 9.8 8.1 56 4.5 NNW 35 41 19 22 1011.1 1011.1 0.0
30/04:30am 17.3 11.4 7.6 53 4.9 NNW 28 33 15 18 1011.1 - 0.0
30/04:00am 17.4 12.3 7.5 52 5.0 NNW 24 30 13 16 1011.0 1011.0 0.0
30/03:30am 17.6 13.0 6.5 48 5.5 NNW 20 24 11 13 1011.0 - 0.0
30/03:00am 17.4 13.3 6.0 47 5.6 NNW 17 20 9 11 1011.0 1011.0 0.0
30/02:30am 17.5 13.1 7.3 51 5.1 WNW 20 28 11 15 1010.9 - 0.0
30/02:00am 17.4 13.1 6.9 50 5.2 WNW 19 24 10 13 1010.7 1010.7 0.0
30/01:30am 17.6 12.4 7.1 50 5.3 NW 24 33 13 18 1010.0 - 0.0
30/01:00am 18.3 10.7 5.8 44 6.1 NW 35 46 19 25 1009.4 1009.4 0.0
30/12:30am 18.3 11.0 5.5 43 6.2 NW 33 50 18 27 1009.5 - 0.0
30/12:25am 17.9 10.6 5.5 44 6.0 NW 33 50 18 27 1009.6 - 0.0
30/12:00am 17.4 12.6 5.4 45 5.8 N 20 32 11 17 1010.3 1010.3 0.0
 
Date/Time
EST
Temp
°C
App
Temp
°C
Dew
Point
Rel
Hum
%
Delta-T
°C
Wind Press
QNH
hPa
Press
MSL
hPa
Rain
since 9 am
mm
Dir
 
Spd
km/h
Gust
km/h
Spd
kts
Gust
kts
29/11:30pm 17.3 12.1 5.3 45 5.8 N 22 30 12 16 1010.9 - 0.0
29/11:00pm 17.5 11.6 4.1 41 6.3 N 24 32 13 17 1010.5 1010.5 0.0
29/10:30pm 18.1 12.8 2.8 36 7.1 NNW 20 28 11 15 1010.4 - 0.0
29/10:00pm 18.2 13.0 3.3 37 7.0 NW 20 28 11 15 1010.5 1010.5 0.0
29/09:30pm 17.9 12.9 4.5 41 6.4 NW 20 26 11 14 1010.6 - 0.0
29/09:00pm 17.5 13.0 4.1 41 6.3 N 17 20 9 11 1010.7 1010.7 0.0
29/08:30pm 17.7 13.6 4.6 42 6.2 NNW 15 20 8 11 1010.6 - 0.0
29/08:00pm 17.7 12.1 5.3 44 6.0 NNW 24 33 13 18 1009.9 1009.9 0.0
29/07:30pm 17.6 12.3 5.2 44 6.0 N 22 30 12 16 1009.4 - 0.0
29/07:00pm 18.9 12.9 3.5 36 7.3 WNW 24 30 13 16 1009.2 1009.2 0.0
29/06:30pm 19.6 10.7 0.6 28 8.5 WNW 37 44 20 24 1008.9 - 0.0
29/06:00pm 19.8 12.2 2.6 32 8.0 WNW 32 41 17 22 1008.4 1008.4 0.0
29/05:30pm 20.1 13.2 0.0 26 8.9 WNW 26 35 14 19 1008.3 - 0.0
29/05:00pm 20.1 13.6 2.5 31 8.2 NW 26 39 14 21 1007.5 1007.5 0.0
29/04:30pm 20.3 14.2 2.6 31 8.3 WNW 24 32 13 17 1007.5 - 0.0
29/04:00pm 20.6 13.7 -0.1 25 9.2 WNW 26 41 14 22 1007.5 1007.5 0.0

Other Formats:

Comma delimited format used in spreadsheet applications
http://www.bom.gov.au/fwo/IDN60801/IDN60801.94939.axf

JavaScript Object Notation format (JSON) in row-major order
http://www.bom.gov.au/fwo/IDN60801/IDN60801.94939.json